Time;durP1;ratioP1;P1;durP2;ratioP2;P2;SDS_P1;SDS_P2;PMS_P1;PMS_P2;Temp;Humidity;BMP_temperature;BMP_pressure;BME280_temperature;BME280_humidity;BME280_pressure;Samples;Min_cycle;Max_cycle;Signal;HPM_P1;HPM_P2
2022/01/23 00:02:09;;;;;;;3.83;3.53;;;;;;;20.57;21.25;95302.50;7302176;19;138261;-76
2022/01/23 00:04:35;;;;;;;3.73;3.43;;;;;;;20.52;21.28;95299.91;7302606;19;139248;-76
2022/01/23 00:07:04;;;;;;;4.00;3.70;;;;;;;20.56;21.54;95325.59;7306427;19;137246;-76
2022/01/23 00:09:30;;;;;;;4.00;3.70;;;;;;;20.52;21.54;95315.84;7288141;19;136976;-77
2022/01/23 00:11:57;;;;;;;3.50;3.30;;;;;;;20.48;21.86;95323.56;7301358;19;137188;-77
2022/01/23 00:17:22;;;;;;;4.33;4.03;;;;;;;20.53;21.64;95328.81;7303302;19;137475;-76
2022/01/23 00:19:51;;;;;;;3.60;3.30;;;;;;;20.45;21.85;95316.16;7291446;19;138522;-76
2022/01/23 00:22:20;;;;;;;4.20;3.90;;;;;;;20.54;21.61;95334.94;7303569;19;138247;-77
2022/01/23 00:32:46;;;;;;;4.37;4.00;;;;;;;20.47;21.65;95321.97;7302843;19;136916;-76
2022/01/23 00:35:11;;;;;;;3.60;3.30;;;;;;;20.52;21.74;95331.75;7302396;19;139313;-76
2022/01/23 00:37:37;;;;;;;4.33;3.97;;;;;;;20.50;21.93;95328.59;7299760;19;139817;-75
2022/01/23 00:40:05;;;;;;;4.00;3.70;;;;;;;20.47;21.63;95327.28;7300608;19;137216;-77
2022/01/23 00:42:31;;;;;;;3.00;2.80;;;;;;;20.45;20.98;95318.81;7289638;19;139602;-75
2022/01/23 00:45:12;;;;;;;3.77;3.47;;;;;;;20.48;21.43;95326.22;7302275;19;137786;-78
2022/01/23 00:47:37;;;;;;;3.83;3.53;;;;;;;20.51;21.18;95336.28;7302523;19;137178;-79
2022/01/23 00:50:03;;;;;;;3.67;3.40;;;;;;;20.49;21.47;95324.34;7302056;19;136963;-77
2022/01/23 00:52:29;;;;;;;3.67;3.47;;;;;;;20.47;21.56;95335.25;7294479;19;139948;-77
2022/01/23 00:54:55;;;;;;;3.23;3.03;;;;;;;20.51;21.40;95338.94;7300537;19;137044;-79
2022/01/23 00:57:21;;;;;;;3.60;3.40;;;;;;;20.46;21.13;95332.88;7302327;19;137087;-77
2022/01/23 00:59:47;;;;;;;3.30;3.10;;;;;;;20.48;21.20;95336.03;7303668;19;137520;-77
2022/01/23 01:02:12;;;;;;;3.70;3.40;;;;;;;20.46;22.03;95328.34;7303441;19;137810;-77
2022/01/23 01:04:38;;;;;;;3.67;3.43;;;;;;;20.40;21.26;95322.28;7291367;19;137541;-77
2022/01/23 01:07:04;;;;;;;3.53;3.33;;;;;;;20.35;21.34;95321.56;7301829;19;139043;-77
2022/01/23 01:09:30;;;;;;;3.90;3.60;;;;;;;20.49;21.72;95335.78;7308825;19;137372;-78
2022/01/23 01:12:07;;;;;;;4.07;3.77;;;;;;;20.25;21.30;95295.91;7309575;19;137233;-77
2022/01/23 01:14:54;;;;;;;3.53;3.27;;;;;;;20.54;21.53;95340.22;7295164;19;139494;-78
2022/01/23 01:30:06;;;;;;;3.27;3.07;;;;;;;20.51;21.66;95336.28;7308018;19;136604;-76
2022/01/23 01:31:56;;;;;;;3.67;3.37;;;;;;;20.47;21.36;95329.16;7308634;19;137210;-76
2022/01/23 01:34:17;;;;;;;3.57;3.27;;;;;;;20.53;21.29;95344.75;7307192;19;136913;-76
2022/01/23 01:36:50;;;;;;;3.20;3.00;;;;;;;20.52;21.84;95343.16;7303770;19;137552;-76
2022/01/23 01:39:19;;;;;;;3.50;3.20;;;;;;;20.53;21.43;95341.31;7308985;19;136971;-77
2022/01/23 01:41:45;;;;;;;3.23;3.03;;;;;;;20.52;21.64;95348.47;7309070;19;137186;-79
2022/01/23 01:44:11;;;;;;;3.43;3.23;;;;;;;20.51;21.38;95349.56;7307608;19;139156;-77
2022/01/23 01:46:40;;;;;;;3.30;3.10;;;;;;;20.47;21.08;95345.06;7336204;19;137125;-75
2022/01/23 01:49:12;;;;;;;3.80;3.50;;;;;;;20.46;21.84;95343.50;7337728;19;137197;-77
2022/01/23 01:51:38;;;;;;;3.70;3.40;;;;;;;20.51;21.17;95352.22;7318630;19;139222;-52
2022/01/23 01:54:16;;;;;;;3.60;3.27;;;;;;;20.51;21.45;95352.22;7300292;19;137352;-52
2022/01/23 01:57:04;;;;;;;3.30;3.07;;;;;;;20.39;21.15;95333.97;7300612;19;138360;-53
2022/01/23 01:59:46;;;;;;;3.67;3.37;;;;;;;20.52;21.38;95351.13;7285380;19;137634;-52
2022/01/23 02:10:28;;;;;;;4.07;3.77;;;;;;;20.50;21.46;95361.25;7285303;19;139362;-52
2022/01/23 02:50:58;;;;;;;3.00;2.80;;;;;;;20.46;21.58;95362.06;7294056;19;137396;-55
2022/01/23 02:53:42;;;;;;;3.30;3.10;;;;;;;20.47;21.17;95364.44;7286411;19;137258;-52
2022/01/23 02:56:20;;;;;;;3.20;3.00;;;;;;;20.47;21.56;95377.72;7295354;19;137122;-51
2022/01/23 02:58:56;;;;;;;3.50;3.20;;;;;;;20.44;21.41;95370.31;7296308;19;138146;-52
2022/01/23 03:01:24;;;;;;;3.37;3.07;;;;;;;20.42;21.06;95367.16;7296757;19;137027;-52
2022/01/23 03:03:57;;;;;;;3.30;3.10;;;;;;;20.45;21.05;95376.41;7296862;19;137544;-57
2022/01/23 03:14:12;;;;;;;3.30;3.10;;;;;;;20.42;21.41;95365.28;7296682;19;137712;-58
2022/01/23 03:29:53;;;;;;;3.20;3.00;;;;;;;20.43;21.02;95382.78;7291790;19;137381;-56
2022/01/23 03:32:25;;;;;;;3.50;3.30;;;;;;;20.43;21.32;95382.78;7296050;19;137209;-59
2022/01/23 03:34:50;;;;;;;3.93;3.63;;;;;;;20.41;21.04;95389.44;7295826;19;136983;-56
2022/01/23 03:37:17;;;;;;;3.60;3.40;;;;;;;20.41;21.30;95392.91;7295058;19;137088;-59
2022/01/23 03:39:42;;;;;;;3.60;3.30;;;;;;;20.41;21.56;95395.53;7282599;19;137836;-58
2022/01/23 03:42:08;;;;;;;3.13;2.93;;;;;;;20.44;21.30;95402.16;7294149;19;137220;-59
2022/01/23 03:44:39;;;;;;;3.43;3.13;;;;;;;20.43;20.96;95395.25;7294373;19;136965;-57
2022/01/23 03:49:50;;;;;;;3.40;3.10;;;;;;;20.45;21.08;95395.78;7281697;19;139565;-58
2022/01/23 03:52:16;;;;;;;3.67;3.40;;;;;;;20.45;21.28;95400.28;7292777;19;137781;-62
2022/01/23 03:54:42;;;;;;;3.37;3.17;;;;;;;20.45;20.94;95403.72;7293670;19;137339;-57
2022/01/23 03:57:08;;;;;;;3.20;3.00;;;;;;;20.45;21.25;95398.44;7294483;19;137078;-58
2022/01/23 03:59:35;;;;;;;3.20;3.00;;;;;;;20.44;21.49;95394.19;7279737;19;139761;-56
2022/01/23 04:02:01;;;;;;;3.30;3.10;;;;;;;20.46;21.35;95401.88;7293534;19;137557;-57
2022/01/23 04:04:40;;;;;;;3.90;3.60;;;;;;;20.45;21.21;95400.28;7295157;19;137574;-55
2022/01/23 04:07:08;;;;;;;2.97;2.77;;;;;;;20.45;20.84;95406.38;7295675;19;137593;-58
2022/01/23 04:09:34;;;;;;;3.20;3.00;;;;;;;20.45;21.04;95401.09;7292722;19;137471;-57
2022/01/23 04:12:01;;;;;;;3.10;2.90;;;;;;;20.37;21.18;95405.13;7280007;19;137764;-59
2022/01/23 04:14:28;;;;;;;2.90;2.70;;;;;;;20.44;21.32;95418.06;7294340;19;136815;-59
2022/01/23 04:33:30;;;;;;;3.70;3.40;;;;;;;20.37;20.99;95405.13;7280597;19;136974;-57
2022/01/23 05:00:15;;;;;;;3.00;2.80;;;;;;;20.29;21.26;95412.88;7300681;19;137463;-59
2022/01/23 05:05:30;;;;;;;3.60;3.40;;;;;;;20.36;21.61;95429.28;7299000;19;137032;-57
2022/01/23 05:07:56;;;;;;;3.40;3.20;;;;;;;20.36;21.11;95437.25;7291654;19;137219;-59
2022/01/23 05:10:22;;;;;;;3.53;3.23;;;;;;;20.36;21.35;95442.53;7298818;19;138082;-58
2022/01/23 05:12:48;;;;;;;3.43;3.13;;;;;;;20.35;21.61;95443.63;7298688;19;137210;-57
2022/01/23 05:15:13;;;;;;;3.63;3.33;;;;;;;20.35;21.55;95451.56;7299184;19;137042;-59
2022/01/23 05:17:39;;;;;;;3.90;3.60;;;;;;;20.36;21.73;95461.13;7286071;19;137119;-58
2022/01/23 05:20:05;;;;;;;3.40;3.20;;;;;;;20.35;21.67;95460.31;7298617;19;137069;-59
2022/01/23 05:22:41;;;;;;;3.37;3.07;;;;;;;20.35;20.94;95464.84;7299282;19;137593;-58
2022/01/23 05:27:33;;;;;;;3.30;3.10;;;;;;;20.33;21.26;95467.78;7294689;19;137188;-55
2022/01/23 05:29:59;;;;;;;3.23;3.03;;;;;;;20.34;21.15;95468.56;7290328;19;137112;-55
2022/01/23 05:32:28;;;;;;;3.40;3.20;;;;;;;20.26;20.79;95454.03;7298709;19;137349;-57
2022/01/23 05:34:55;;;;;;;3.50;3.30;;;;;;;20.34;21.15;95458.75;7298712;19;138975;-59
2022/01/23 05:37:20;;;;;;;3.30;3.10;;;;;;;20.33;20.90;95456.38;7298590;19;137603;-58
2022/01/23 05:39:46;;;;;;;3.30;3.10;;;;;;;20.34;20.84;95456.09;7286013;19;137878;-56
2022/01/23 05:42:11;;;;;;;3.40;3.20;;;;;;;20.27;20.93;95442.34;7298113;19;137418;-56
2022/01/23 05:44:39;;;;;;;3.33;3.13;;;;;;;20.28;21.50;95437.81;7300071;19;138926;-54
2022/01/23 05:47:06;;;;;;;3.20;3.00;;;;;;;20.35;21.11;95444.41;7299228;19;136632;-58
2022/01/23 05:49:31;;;;;;;3.30;3.10;;;;;;;20.33;20.89;95451.06;7294624;19;136820;-54
2022/01/23 05:51:58;;;;;;;3.00;2.80;;;;;;;20.34;20.92;95447.34;7284346;19;138593;-58
2022/01/23 05:54:23;;;;;;;3.40;3.20;;;;;;;20.37;20.91;95458.19;7297340;19;137936;-57
2022/01/23 05:56:49;;;;;;;3.87;3.57;;;;;;;20.34;21.31;95455.31;7297653;19;137522;-57
2022/01/23 05:59:16;;;;;;;3.40;3.13;;;;;;;20.36;20.93;95461.13;7298117;19;136762;-59
2022/01/23 06:01:42;;;;;;;2.73;2.53;;;;;;;20.28;21.01;95454.53;7286423;19;138463;-54
2022/01/23 06:04:08;;;;;;;3.10;2.90;;;;;;;20.38;21.42;95470.38;7297314;19;138215;-58
2022/01/23 06:06:34;;;;;;;3.63;3.40;;;;;;;20.35;21.06;95467.50;7298046;19;137461;-60
2022/01/23 06:08:59;;;;;;;3.40;3.10;;;;;;;20.38;20.67;95469.59;7298165;19;137009;-58
2022/01/23 06:11:25;;;;;;;3.30;3.00;;;;;;;20.37;21.02;95476.75;7295391;19;137807;-58
2022/01/23 06:13:50;;;;;;;3.23;3.03;;;;;;;20.38;20.71;95480.22;7284552;19;136949;-58
2022/01/23 06:16:16;;;;;;;3.00;2.80;;;;;;;20.37;20.99;95478.63;7297496;19;137004;-57
2022/01/23 06:18:43;;;;;;;3.30;3.10;;;;;;;20.36;20.99;95479.69;7297454;19;137293;-58
2022/01/23 06:21:09;;;;;;;3.10;2.80;;;;;;;20.31;21.18;95480.50;7297388;19;137657;-59
2022/01/23 06:23:35;;;;;;;3.60;3.30;;;;;;;20.35;20.84;95489.53;7283061;19;137497;-59
2022/01/23 06:26:01;;;;;;;3.27;3.07;;;;;;;20.35;20.92;95492.16;7297311;19;137286;-58
2022/01/23 06:28:44;;;;;;;3.00;2.80;;;;;;;20.33;20.71;95486.34;7297976;19;136955;-58
2022/01/23 06:31:10;;;;;;;3.23;3.03;;;;;;;20.34;21.16;95495.91;7295488;19;137023;-54
2022/01/23 06:33:36;;;;;;;2.90;2.70;;;;;;;20.33;20.70;95506.78;7294360;19;138142;-55
2022/01/23 06:36:03;;;;;;;2.83;2.63;;;;;;;20.29;20.65;95493.25;7286431;19;136789;-58
2022/01/23 06:38:29;;;;;;;2.50;2.40;;;;;;;20.33;21.18;95496.19;7297987;19;137648;-58
2022/01/23 06:40:54;;;;;;;2.70;2.50;;;;;;;20.35;21.18;95496.69;7296870;19;136886;-57
2022/01/23 06:43:20;;;;;;;3.10;2.90;;;;;;;20.35;20.74;95489.53;7297271;19;136981;-57
2022/01/23 06:45:45;;;;;;;2.70;2.50;;;;;;;20.35;21.03;95491.38;7283870;19;136964;-59
2022/01/23 06:48:11;;;;;;;2.70;2.50;;;;;;;20.36;20.69;95485.00;7296456;19;137074;-57
2022/01/23 06:50:37;;;;;;;3.00;2.80;;;;;;;20.36;20.89;95488.44;7293981;19;138180;-58
2022/01/23 06:53:02;;;;;;;2.80;2.60;;;;;;;20.33;20.54;95478.38;7294651;19;137621;-57
2022/01/23 06:55:28;;;;;;;3.30;3.10;;;;;;;20.66;20.81;95481.34;7294127;19;136682;-59
2022/01/23 06:57:53;;;;;;;3.17;2.97;;;;;;;20.86;20.18;95478.50;7283452;19;136923;-58
2022/01/23 07:00:19;;;;;;;3.03;2.83;;;;;;;20.96;20.23;95477.59;7296931;19;137674;-59
2022/01/23 07:02:44;;;;;;;3.13;2.93;;;;;;;21.25;20.14;95474.94;7296068;19;137643;-58
2022/01/23 07:05:10;;;;;;;5.00;3.07;;;;;;;21.48;20.15;95476.78;7296593;19;137684;-57
2022/01/23 07:07:35;;;;;;;3.13;2.93;;;;;;;21.58;19.40;95475.88;7284873;19;137919;-57
2022/01/23 07:10:01;;;;;;;3.33;3.10;;;;;;;21.56;20.05;95480.69;7296162;19;138028;-59
2022/01/23 07:12:27;;;;;;;2.80;2.60;;;;;;;21.14;19.90;95476.88;7297033;19;137446;-56
2022/01/23 07:14:52;;;;;;;3.50;3.20;;;;;;;21.25;20.24;95493.53;7297760;19;136872;-55
2022/01/23 07:17:18;;;;;;;2.90;2.70;;;;;;;21.01;20.15;95496.16;7296619;19;137127;-59
2022/01/23 07:19:43;;;;;;;3.23;3.03;;;;;;;20.95;20.61;95495.41;7282800;19;137218;-57
2022/01/23 07:22:09;;;;;;;3.10;2.90;;;;;;;21.04;19.85;95492.94;7297073;19;137438;-57
2022/01/23 07:24:34;;;;;;;3.33;3.03;;;;;;;20.95;20.40;95502.56;7296336;19;136874;-58
2022/01/23 07:27:02;;;;;;;3.80;3.50;;;;;;;20.88;20.55;95494.16;7297573;19;136648;-57
2022/01/23 07:29:27;;;;;;;3.43;3.20;;;;;;;20.79;20.72;95490.50;7283923;19;137035;-57
2022/01/23 07:31:58;;;;;;;3.20;3.00;;;;;;;20.81;20.19;95499.78;7293590;19;137286;-57
2022/01/23 07:34:24;;;;;;;3.40;3.20;;;;;;;20.77;20.83;95496.09;7296986;19;137005;-57
2022/01/23 07:36:50;;;;;;;3.13;2.93;;;;;;;20.75;20.60;95494.78;7297711;19;137692;-58
2022/01/23 07:39:15;;;;;;;3.10;2.90;;;;;;;20.70;20.83;95499.09;7295727;19;137841;-58
2022/01/23 07:41:41;;;;;;;3.73;3.33;;;;;;;20.68;20.44;95495.13;7282955;19;137172;-57
2022/01/23 07:44:07;;;;;;;3.53;3.23;;;;;;;20.64;20.48;95494.88;7297065;19;136879;-58
2022/01/23 07:46:32;;;;;;;3.67;3.47;;;;;;;20.59;20.58;95491.47;7296105;19;136824;-55
2022/01/23 07:48:58;;;;;;;4.10;2.97;;;;;;;20.59;20.98;95491.47;7296727;19;136996;-58
2022/01/23 07:51:23;;;;;;;3.53;3.33;;;;;;;20.59;20.55;95492.28;7280399;19;137720;-59
2022/01/23 07:53:49;;;;;;;3.73;3.43;;;;;;;20.57;20.81;95496.28;7295584;19;138042;-58
2022/01/23 07:56:15;;;;;;;3.20;3.00;;;;;;;20.53;20.46;95498.69;7295822;19;137013;-61
2022/01/23 07:58:41;;;;;;;3.53;3.23;;;;;;;20.53;20.59;95497.91;7295806;19;138983;-59
2022/01/23 08:01:06;;;;;;;3.60;3.40;;;;;;;20.56;20.48;95498.13;7296447;19;137048;-59
2022/01/23 08:03:32;;;;;;;3.20;3.00;;;;;;;20.55;20.65;95506.38;7282132;19;137290;-60
2022/01/23 08:05:58;;;;;;;4.40;3.13;;;;;;;20.33;20.53;95469.63;7296257;19;136595;-59
2022/01/23 08:08:23;;;;;;;3.30;3.10;;;;;;;20.50;20.77;95493.94;7295967;19;136870;-59
2022/01/23 08:10:49;;;;;;;3.30;3.03;;;;;;;20.53;20.82;95503.22;7293798;19;137545;-59
2022/01/23 08:13:14;;;;;;;3.73;3.43;;;;;;;20.52;20.66;95496.31;7282930;19;141094;-59
2022/01/23 08:15:40;;;;;;;3.60;3.30;;;;;;;20.50;20.48;95496.59;7293823;19;137425;-59
2022/01/23 08:18:07;;;;;;;3.70;3.40;;;;;;;20.52;21.18;95491.81;7294355;19;136889;-59
2022/01/23 08:20:34;;;;;;;3.50;3.30;;;;;;;20.52;20.63;95497.13;7295294;19;137334;-57
2022/01/23 08:23:02;;;;;;;3.40;3.20;;;;;;;20.51;20.87;95497.41;7294792;19;138068;-57
2022/01/23 08:25:28;;;;;;;4.00;3.70;;;;;;;20.52;20.79;95496.31;7281175;19;137428;-58
2022/01/23 08:27:54;;;;;;;3.97;3.67;;;;;;;20.52;20.85;95496.31;7293944;19;137039;-58
2022/01/23 08:30:21;;;;;;;4.17;3.87;;;;;;;20.51;21.10;95503.50;7294252;19;137377;-59
2022/01/23 08:32:47;;;;;;;3.67;3.37;;;;;;;20.51;21.14;95495.53;7293469;19;137273;-57
2022/01/23 08:35:12;;;;;;;4.57;4.27;;;;;;;20.50;20.47;95493.16;7279360;19;137035;-56
2022/01/23 08:37:38;;;;;;;4.80;3.70;;;;;;;20.49;21.20;95505.63;7294726;19;137838;-55
2022/01/23 08:40:15;;;;;;;6.83;4.10;;;;;;;20.46;21.54;95503.50;7293062;19;137557;-55
2022/01/23 08:42:41;;;;;;;4.53;4.13;;;;;;;20.54;21.33;95496.84;7108285;19;137886;-57
2022/01/23 08:45:07;;;;;;;5.17;3.93;;;;;;;20.53;21.45;95493.41;7293043;19;137096;-55
2022/01/23 08:47:32;;;;;;;5.00;4.50;;;;;;;20.59;20.90;95494.94;7280870;19;137913;-55
2022/01/23 08:49:58;;;;;;;4.80;4.07;;;;;;;20.62;21.43;95504.19;7294350;19;137040;-56
2022/01/23 08:52:24;;;;;;;5.77;4.50;;;;;;;20.67;21.21;95509.47;7292118;19;137090;-57
2022/01/23 08:54:56;;;;;;;6.27;4.67;;;;;;;20.71;21.64;95498.00;7284405;19;139787;-59
2022/01/23 08:57:22;;;;;;;4.83;4.40;;;;;;;20.79;21.73;95501.13;7267450;19;138693;-57
2022/01/23 08:59:48;;;;;;;5.80;4.20;;;;;;;20.87;21.30;95498.69;7285807;19;137697;-56
2022/01/23 09:02:13;;;;;;;5.00;3.80;;;;;;;20.92;21.60;95495.16;7283955;19;137921;-57
2022/01/23 09:04:39;;;;;;;4.43;4.03;;;;;;;20.94;21.36;95490.38;7286330;19;138616;-56
2022/01/23 09:07:04;;;;;;;5.03;4.53;;;;;;;20.99;21.81;95498.28;7283218;19;137923;-57
2022/01/23 09:09:32;;;;;;;4.67;4.30;;;;;;;20.98;21.62;95494.81;7270583;19;137587;-57
2022/01/23 09:14:24;;;;;;;7.10;4.50;;;;;;;21.11;22.24;95493.38;7286532;19;137047;-57
2022/01/23 09:16:52;;;;;;;6.00;5.40;;;;;;;21.21;22.34;95493.28;7274527;19;139042;-57
2022/01/23 09:19:19;;;;;;;7.27;5.07;;;;;;;21.24;22.91;95492.75;7269001;19;137960;-57
2022/01/23 09:21:46;;;;;;;9.47;5.20;;;;;;;21.23;23.65;95490.34;7282119;19;138093;-58
2022/01/23 09:24:12;;;;;;;10.17;5.27;;;;;;;21.24;23.43;95489.28;7282711;19;136960;-56
2022/01/23 09:26:38;;;;;;;4.40;4.00;;;;;;;21.25;23.54;95488.22;7276752;19;138719;-56
2022/01/23 09:29:18;;;;;;;5.83;5.03;;;;;;;21.28;23.45;95488.44;7289993;19;137932;-58
2022/01/23 09:31:50;;;;;;;8.13;4.83;;;;;;;21.30;22.92;95485.50;7273673;19;137449;-57
2022/01/23 09:34:21;;;;;;;7.20;5.20;;;;;;;21.32;23.58;95475.38;7292642;19;137985;-57
2022/01/23 09:36:48;;;;;;;6.63;4.50;;;;;;;21.30;23.05;95488.16;7286267;19;138130;-57
2022/01/23 09:39:15;;;;;;;5.33;4.73;;;;;;;21.28;22.94;95483.13;7291153;19;137591;-56
2022/01/23 09:41:48;;;;;;;12.30;5.63;;;;;;;21.26;23.46;95474.66;7279368;19;137557;-58
2022/01/23 09:44:17;;;;;;;7.17;4.70;;;;;;;21.30;23.01;95473.00;7292807;19;137422;-57
2022/01/23 09:46:45;;;;;;;5.17;4.67;;;;;;;21.34;23.23;95469.81;7284509;19;137505;-57
2022/01/23 09:49:14;;;;;;;6.23;4.80;;;;;;;21.36;22.55;95465.00;7292900;19;137936;-57
2022/01/23 09:51:45;;;;;;;5.90;4.90;;;;;;;21.47;22.94;95474.41;7291234;19;137662;-57
2022/01/23 09:54:14;;;;;;;5.67;4.60;;;;;;;21.57;22.63;95464.44;7282445;19;138088;-56
2022/01/23 09:56:42;;;;;;;6.07;4.07;;;;;;;21.62;23.08;95455.63;7285273;19;137258;-58
2022/01/23 09:59:13;;;;;;;4.80;4.40;;;;;;;21.70;23.36;95465.63;7292045;19;138247;-58
2022/01/23 10:01:41;;;;;;;6.30;4.33;;;;;;;21.76;23.29;95463.69;7291293;19;138884;-59
2022/01/23 10:04:07;;;;;;;8.23;4.50;;;;;;;21.76;23.28;95467.13;7276892;19;137178;-57
2022/01/23 10:06:32;;;;;;;5.20;4.03;;;;;;;21.72;23.80;95466.13;7286409;19;137506;-55
2022/01/23 10:08:59;;;;;;;4.47;3.73;;;;;;;21.70;23.85;95451.53;7288138;19;137945;-60
2022/01/23 10:11:29;;;;;;;5.70;4.20;;;;;;;21.67;24.08;95455.56;7290576;19;137391;-57
2022/01/23 10:13:55;;;;;;;7.30;4.40;;;;;;;21.68;24.54;95443.84;7281119;19;137744;-59
2022/01/23 10:16:21;;;;;;;7.50;4.50;;;;;;;21.74;25.38;95444.56;7281909;19;137687;-57
2022/01/23 10:18:48;;;;;;;7.43;4.87;;;;;;;21.74;25.03;95448.00;7291281;19;138401;-57
2022/01/23 10:21:16;;;;;;;6.40;4.07;;;;;;;21.65;25.15;95430.31;7291723;19;137421;-58
2022/01/23 10:23:42;;;;;;;8.27;4.53;;;;;;;21.61;25.21;95433.56;7288464;19;137258;-55
2022/01/23 10:26:07;;;;;;;5.00;4.20;;;;;;;21.69;24.84;95426.03;7276297;19;139980;-54
2022/01/23 10:28:35;;;;;;;7.03;4.93;;;;;;;21.67;25.49;95430.81;7287127;19;138946;-55
2022/01/23 10:31:04;;;;;;;6.10;5.50;;;;;;;21.71;26.08;95421.22;7286998;19;139203;-56
2022/01/23 10:33:38;;;;;;;5.20;4.80;;;;;;;21.73;26.66;95424.38;7290244;19;137469;-56
2022/01/23 10:36:19;;;;;;;5.63;5.00;;;;;;;21.67;26.25;95428.16;7278854;19;137733;-55
2022/01/23 10:38:46;;;;;;;6.73;5.10;;;;;;;21.68;26.60;95421.78;7286510;19;137942;-54
2022/01/23 10:47:17;;;;;;;7.70;5.70;;;;;;;21.72;27.38;95423.56;7284267;19;137145;-55
2022/01/23 10:49:48;;;;;;;8.13;6.13;;;;;;;21.72;27.12;95418.25;7289530;19;138755;-56
2022/01/23 10:52:37;;;;;;;6.37;5.00;;;;;;;21.73;27.77;95421.72;7286350;19;137652;-55
2022/01/23 10:55:27;;;;;;;6.77;6.10;;;;;;;21.71;27.48;95415.88;7288587;19;137608;-55
2022/01/23 10:57:57;;;;;;;6.83;6.33;;;;;;;21.75;27.63;95409.69;7274996;19;138050;-55
2022/01/23 11:00:29;;;;;;;6.60;6.00;;;;;;;21.79;27.80;95408.03;7283283;19;137761;-55
2022/01/23 11:02:57;;;;;;;6.63;6.03;;;;;;;21.79;28.40;95404.59;7286167;19;137815;-56
2022/01/23 11:05:34;;;;;;;6.27;5.77;;;;;;;21.76;27.96;95408.63;7287776;19;137669;-56
2022/01/23 11:08:00;;;;;;;6.23;5.73;;;;;;;21.78;28.39;95406.47;7281249;19;136986;-55
2022/01/23 11:10:27;;;;;;;6.53;5.87;;;;;;;21.77;27.80;95401.44;7275155;19;138211;-55
2022/01/23 11:18:16;;;;;;;9.80;8.00;;;;;;;21.72;27.28;95386.34;7283553;19;137989;-56
2022/01/23 11:20:50;;;;;;;11.60;10.60;;;;;;;21.76;26.77;95397.97;7274710;19;137549;-55
2022/01/23 11:23:24;;;;;;;302.07;279.87;;;;;;;21.68;27.16;95390.66;7288426;19;137930;-56
2022/01/23 11:25:55;;;;;;;1029.37;926.50;;;;;;;21.56;27.58;95380.44;7288069;19;137642;-55
2022/01/23 11:28:44;;;;;;;758.03;696.30;;;;;;;21.68;27.66;95373.91;7282354;19;137457;-55
2022/01/23 11:31:17;;;;;;;682.90;629.10;;;;;;;21.78;27.17;95366.56;7276388;19;138241;-56
2022/01/23 11:33:44;;;;;;;642.87;592.80;;;;;;;21.83;27.58;95369.13;7288667;19;137515;-57
2022/01/23 11:36:10;;;;;;;622.60;574.80;;;;;;;21.83;27.35;95366.47;7284451;19;138636;-57
2022/01/23 11:38:37;;;;;;;594.77;550.33;;;;;;;21.87;27.49;95367.50;7283237;19;137987;-57
2022/01/23 11:54:49;;;;;;;415.33;385.93;;;;;;;21.76;26.62;95354.63;7273890;19;138054;-55
2022/01/23 11:57:33;;;;;;;385.17;359.57;;;;;;;21.55;26.61;95317.72;7280478;19;137593;-55
2022/01/23 12:00:06;;;;;;;345.20;322.37;;;;;;;21.71;26.42;95349.41;7286228;19;138234;-56
2022/01/23 12:02:36;;;;;;;297.90;278.27;;;;;;;21.72;26.24;95343.78;7287898;19;138280;-55
2022/01/23 12:05:15;;;;;;;283.63;265.03;;;;;;;21.88;26.79;95347.00;7274725;19;138898;-57
2022/01/23 12:07:42;;;;;;;258.40;241.37;;;;;;;21.99;26.71;95344.97;7292196;19;137616;-58
2022/01/23 12:10:15;;;;;;;234.30;218.73;;;;;;;22.07;26.37;95349.66;7293593;19;137830;-55
2022/01/23 12:12:45;;;;;;;218.53;203.90;;;;;;;22.12;26.58;95355.69;7293107;19;137257;-58
2022/01/23 12:18:16;;;;;;;185.03;172.13;;;;;;;22.22;26.91;95341.44;7296344;19;136934;-58
2022/01/23 12:20:44;;;;;;;172.57;160.67;;;;;;;22.21;26.69;95345.97;7294711;19;137760;-57
2022/01/23 12:23:10;;;;;;;157.53;146.57;;;;;;;22.23;26.56;95348.34;7295000;19;137522;-56
2022/01/23 12:26:07;;;;;;;150.93;140.40;;;;;;;22.26;26.07;95346.94;7293059;19;136966;-58
2022/01/23 12:28:43;;;;;;;138.07;128.70;;;;;;;22.28;26.52;95350.09;7291776;19;137969;-55
2022/01/23 12:31:14;;;;;;;129.97;121.27;;;;;;;22.30;26.15;95340.75;7294467;19;137260;-55
2022/01/23 12:33:40;;;;;;;123.40;115.07;;;;;;;22.31;25.98;95342.31;7294842;19;138931;-58
2022/01/23 12:36:14;;;;;;;117.70;109.70;;;;;;;22.31;26.57;95350.31;7294809;19;137079;-59
2022/01/23 12:38:46;;;;;;;108.67;101.37;;;;;;;22.31;26.24;95350.31;7281598;19;136774;-59
2022/01/23 12:41:23;;;;;;;95.57;88.80;;;;;;;22.13;26.23;95353.81;7294746;19;137276;-58
2022/01/23 12:44:18;;;;;;;77.63;72.13;;;;;;;22.19;25.86;95361.44;7292477;19;138915;-59
2022/01/23 12:46:53;;;;;;;72.73;67.43;;;;;;;22.29;26.20;95351.69;7293369;19;137128;-58
2022/01/23 12:49:27;;;;;;;70.30;65.20;;;;;;;22.36;26.00;95357.44;7279472;19;137356;-57
2022/01/23 12:52:11;;;;;;;60.63;56.40;;;;;;;22.41;25.88;95360.78;7289229;19;137958;-57
2022/01/23 12:54:59;;;;;;;58.70;54.63;;;;;;;22.41;26.02;95355.47;7292033;19;138939;-57
2022/01/23 12:57:34;;;;;;;55.07;51.07;;;;;;;22.48;25.60;95363.06;7293367;19;137707;-57
2022/01/23 13:00:04;;;;;;;52.63;48.63;;;;;;;22.43;25.42;95355.97;7282122;19;138702;-57
2022/01/23 13:02:40;;;;;;;46.60;43.20;;;;;;;22.50;25.40;95375.00;7297281;19;138176;-58
2022/01/23 13:05:06;;;;;;;44.53;41.43;;;;;;;22.52;26.08;95364.06;7299710;19;137560;-57
2022/01/23 13:16:03;;;;;;;27.57;25.57;;;;;;;22.25;25.27;95362.13;7299898;19;137209;-57
2022/01/23 13:27:29;;;;;;;21.47;19.93;;;;;;;22.50;25.18;95361.69;7300937;19;136958;-59
2022/01/23 13:32:31;;;;;;;19.50;18.00;;;;;;;22.55;25.29;95366.16;7287742;19;139564;-59
2022/01/23 13:35:05;;;;;;;17.77;16.47;;;;;;;22.58;24.83;95367.44;7299563;19;138911;-58
2022/01/23 13:37:34;;;;;;;16.50;15.27;;;;;;;22.56;24.98;95356.28;7299348;19;137187;-56
2022/01/23 13:40:05;;;;;;;16.63;15.43;;;;;;;22.62;25.06;95357.75;7298968;19;137251;-57
2022/01/23 13:42:56;;;;;;;14.80;13.70;;;;;;;22.61;24.93;95362.28;7298485;19;136661;-59
2022/01/23 13:59:44;;;;;;;11.37;10.47;;;;;;;22.73;25.61;95372.47;7299133;19;137150;-59
2022/01/23 14:02:17;;;;;;;11.13;10.33;;;;;;;22.70;25.38;95368.53;7298749;19;136746;-59
2022/01/23 14:04:48;;;;;;;9.97;9.23;;;;;;;22.69;25.46;95369.63;7298606;19;138087;-59
2022/01/23 14:07:27;;;;;;;10.03;9.33;;;;;;;22.64;25.15;95363.56;7285774;19;137892;-58
2022/01/23 14:10:10;;;;;;;9.73;9.03;;;;;;;22.59;25.52;95356.47;7298330;19;137609;-59
2022/01/23 14:12:35;;;;;;;9.00;8.30;;;;;;;22.67;25.17;95373.63;7295548;19;137079;-56
2022/01/23 14:15:07;;;;;;;9.73;9.03;;;;;;;22.63;24.59;95373.44;7296924;19;137047;-58
2022/01/23 14:17:39;;;;;;;9.57;8.87;;;;;;;22.65;25.01;95367.81;7285368;19;137031;-57
2022/01/23 14:20:15;;;;;;;8.77;7.90;;;;;;;22.65;24.96;95365.16;7297310;19;137560;-58
2022/01/23 14:22:44;;;;;;;8.23;7.63;;;;;;;22.66;24.51;95369.41;7298164;19;136955;-59
2022/01/23 14:25:16;;;;;;;7.20;6.70;;;;;;;22.68;25.07;95372.56;7297373;19;136887;-58
2022/01/23 14:28:02;;;;;;;7.80;7.20;;;;;;;22.73;24.99;95375.13;7281950;19;137790;-58
2022/01/23 14:30:29;;;;;;;8.27;7.57;;;;;;;22.75;25.48;95368.44;7295465;19;137379;-59
2022/01/23 14:33:04;;;;;;;8.37;7.60;;;;;;;22.77;25.57;95374.25;7281007;19;138383;-58
2022/01/23 14:35:31;;;;;;;7.50;6.90;;;;;;;22.79;25.83;95377.41;7285612;19;138552;-61
2022/01/23 14:38:14;;;;;;;7.23;6.63;;;;;;;22.81;25.75;95380.56;7290804;19;137842;-59
2022/01/23 14:40:53;;;;;;;7.70;7.00;;;;;;;22.78;26.36;95383.81;7288744;19;137221;-60
2022/01/23 14:43:19;;;;;;;7.20;6.70;;;;;;;22.78;25.69;95388.34;7289827;19;137148;-56
2022/01/23 14:45:50;;;;;;;6.37;5.83;;;;;;;22.77;25.77;95390.22;7279326;19;138246;-58
2022/01/23 14:48:16;;;;;;;7.57;6.97;;;;;;;22.78;26.03;95391.81;7290486;19;138818;-57
2022/01/23 14:50:50;;;;;;;7.00;6.40;;;;;;;22.77;25.43;95384.91;7274050;19;140736;-58
2022/01/23 14:53:19;;;;;;;6.60;6.10;;;;;;;22.78;25.35;95401.66;7286733;19;138589;-57
2022/01/23 14:55:53;;;;;;;6.67;6.17;;;;;;;22.78;25.78;95399.00;7283579;19;138421;-58